Asheville Regional Airport Asheville US
ICAO: KAVL
IATA: AVL
Category: Large
Scheduled Services: Yes

Elevation: 2165 ft
TransAlt. 18000 ft.

Airport Communications:
APP/DEP:124.65
ATIS:120.2
CTAF:121.1
GND:121.9
TWR:121.1
UNICOM:122.95

KAVL Zoom In..

If you have problems with the map follow the link
https://www.worldairports.se/pages/airport.php?
ICAO=KAVL

Runways:

(A) RW 16 length 8001 ft width 150 ft
ILS 110.90 / hdg 164

(B) RW 34 length 8001 ft width 150 ft
ILS 110.50 / hdg 344

Location; KAVL
Day. 19 / Time. 13.54 Zulu
* Altimeter: 30.18
* Temperature: 03° c. 37.4°f.
* Wind from: 000° Speed 00 kn.
Dewpoint: 02° c.
Visibility: 1 Statute Miles.
Clouds: Overcast 100 ft.
Conditions: Mist.

KAVL 191354Z 00000KT 1SM BR OVC001 03/02 A3018 RMK AO2 SLP223 T00280022 RVRNO


Wind - Calm.

 
 
jpsmedia.com for Web Design worldairports.se 2018   terms of use